Time;durP1;ratioP1;P1;durP2;ratioP2;P2;SDS_P1;SDS_P2;PMS_P1;PMS_P2;Temp;Humidity;BMP_temperature;BMP_pressure;BME280_temperature;BME280_humidity;BME280_pressure;Samples;Min_cycle;Max_cycle;Signal;HPM_P1;HPM_P2
2022/03/14 00:00:37;;;;;;;10.15;7.38;;;;;;;9.08;28.56;96648.44;4936664;29;20051;-79
2022/03/14 00:03:05;;;;;;;11.63;7.55;;;;;;;9.05;28.72;96647.94;4936039;29;20063;-79
2022/03/14 00:05:33;;;;;;;9.75;7.13;;;;;;;8.99;29.20;96646.06;4935895;29;20412;-78
2022/03/14 00:08:02;;;;;;;12.65;8.18;;;;;;;8.93;28.64;96647.53;4939362;29;20499;-78
2022/03/14 00:10:30;;;;;;;11.43;7.13;;;;;;;8.91;28.88;96646.88;4939999;29;20062;-80
2022/03/14 00:12:58;;;;;;;10.02;7.57;;;;;;;8.87;28.75;96651.59;4940020;29;20067;-80
2022/03/14 00:15:29;;;;;;;9.32;7.00;;;;;;;8.88;28.62;96660.25;4939972;29;20051;-79
2022/03/14 00:17:59;;;;;;;8.02;6.90;;;;;;;8.90;28.55;96662.66;4938334;29;20512;-77
2022/03/14 00:20:27;;;;;;;9.38;7.10;;;;;;;8.92;29.11;96660.69;4939119;29;20060;-79
2022/03/14 00:22:57;;;;;;;11.07;6.90;;;;;;;8.96;28.10;96662.78;4939710;29;20428;-77
2022/03/14 00:25:27;;;;;;;10.60;7.45;;;;;;;8.99;28.34;96669.47;4939568;29;20524;-79
2022/03/14 00:27:55;;;;;;;8.65;6.95;;;;;;;9.01;28.17;96676.13;4939108;29;20059;-80
2022/03/14 00:30:23;;;;;;;10.55;6.75;;;;;;;9.01;27.97;96676.13;4940056;29;20055;-79
2022/03/14 00:32:50;;;;;;;11.32;7.35;;;;;;;8.97;27.90;96680.03;4939662;29;20047;-80
2022/03/14 00:35:18;;;;;;;7.68;6.70;;;;;;;8.93;28.20;96678.75;4939274;29;20044;-79
2022/03/14 00:37:45;;;;;;;10.38;7.22;;;;;;;8.92;28.05;96691.91;4938508;29;20062;-79
2022/03/14 00:40:14;;;;;;;11.38;7.38;;;;;;;8.91;28.27;96698.91;4939264;29;20047;-80
2022/03/14 00:42:43;;;;;;;8.30;6.57;;;;;;;8.92;28.13;96697.97;4939541;29;20048;-80
2022/03/14 00:45:11;;;;;;;9.25;6.97;;;;;;;8.89;28.06;96708.69;4939422;29;20496;-80
2022/03/14 00:47:39;;;;;;;13.35;9.15;;;;;;;8.82;28.01;96710.34;4938675;29;20435;-80
2022/03/14 00:50:08;;;;;;;9.48;7.13;;;;;;;8.75;28.03;96712.00;4938959;29;20475;-79
2022/03/14 00:52:36;;;;;;;9.18;7.40;;;;;;;8.66;28.20;96717.22;4939121;29;20052;-80
2022/03/14 00:55:04;;;;;;;8.60;7.22;;;;;;;8.64;28.17;96721.78;4938177;29;20059;-78
2022/03/14 00:57:31;;;;;;;12.18;7.22;;;;;;;8.55;28.70;96712.38;4940500;29;20055;-78
2022/03/14 01:00:00;;;;;;;9.63;7.20;;;;;;;8.48;28.82;96719.19;4960769;29;20038;-76
2022/03/14 01:02:28;;;;;;;9.43;7.20;;;;;;;8.44;28.44;96730.91;4958494;29;20075;-78
2022/03/14 01:04:56;;;;;;;9.07;7.05;;;;;;;8.47;28.81;96729.78;4957793;29;20056;-77
2022/03/14 01:07:23;;;;;;;9.70;7.15;;;;;;;8.48;28.65;96737.38;4957750;29;20052;-78
2022/03/14 01:09:51;;;;;;;10.27;7.10;;;;;;;8.51;28.56;96746.66;4941397;29;20063;-77
2022/03/14 01:12:18;;;;;;;10.25;7.10;;;;;;;8.54;28.59;96756.72;4939311;29;20051;-75
2022/03/14 01:14:46;;;;;;;12.93;7.13;;;;;;;8.54;28.46;96754.94;4940006;29;20048;-78
2022/03/14 01:17:14;;;;;;;11.52;7.68;;;;;;;8.52;28.81;96759.47;4950071;29;20052;-79
2022/03/14 01:19:42;;;;;;;9.40;6.95;;;;;;;8.50;28.78;96760.63;4956789;29;20058;-79
2022/03/14 01:22:11;;;;;;;11.02;7.32;;;;;;;8.51;28.87;96773.47;4941932;29;20111;-77
2022/03/14 01:24:42;;;;;;;9.15;7.47;;;;;;;8.50;28.52;96774.44;4938782;29;20172;-82
2022/03/14 01:27:10;;;;;;;8.65;6.65;;;;;;;8.50;28.82;96790.03;4937478;29;20197;-78
2022/03/14 01:29:38;;;;;;;9.55;7.00;;;;;;;8.49;28.92;96791.03;4939022;29;20063;-78
2022/03/14 01:32:07;;;;;;;9.93;7.20;;;;;;;8.49;29.33;96801.41;4938720;29;20044;-77
2022/03/14 01:34:38;;;;;;;9.55;7.53;;;;;;;8.55;29.85;96811.16;4938928;29;20512;-78
2022/03/14 01:37:06;;;;;;;11.85;7.68;;;;;;;8.62;30.04;96817.34;4937601;29;20047;-80
2022/03/14 01:39:34;;;;;;;11.23;7.47;;;;;;;8.71;30.18;96833.75;4938512;29;20051;-77
2022/03/14 01:42:01;;;;;;;11.73;8.02;;;;;;;8.80;30.16;96850.97;4938432;29;20063;-77
2022/03/14 01:44:29;;;;;;;11.65;7.53;;;;;;;8.82;30.13;96843.81;4937881;29;20419;-78
2022/03/14 01:46:57;;;;;;;11.75;8.07;;;;;;;8.84;30.68;96851.44;4937104;29;20048;-78
2022/03/14 01:49:25;;;;;;;14.25;9.00;;;;;;;8.82;30.48;96848.19;4937469;29;20518;-78
2022/03/14 01:51:57;;;;;;;9.65;7.68;;;;;;;8.81;30.95;96851.75;4937239;29;20098;-79
2022/03/14 01:54:24;;;;;;;10.98;7.68;;;;;;;8.81;30.36;96856.97;4937119;29;20072;-78
2022/03/14 01:56:52;;;;;;;12.13;7.40;;;;;;;8.78;30.13;96865.09;4936503;29;20063;-76
2022/03/14 01:59:21;;;;;;;9.48;7.13;;;;;;;8.77;30.14;96866.09;4941346;29;20334;-78
2022/03/14 02:01:48;;;;;;;10.75;7.50;;;;;;;8.85;30.72;96881.69;4940818;29;20055;-77
2022/03/14 02:04:16;;;;;;;9.90;7.53;;;;;;;8.91;30.25;96872.41;4937361;29;20054;-76
2022/03/14 02:06:46;;;;;;;10.57;8.38;;;;;;;8.89;29.89;96882.97;4936799;29;20114;-77
2022/03/14 02:09:16;;;;;;;10.90;7.60;;;;;;;8.91;30.44;96891.44;4936843;29;20087;-77
2022/03/14 02:11:52;;;;;;;8.65;7.43;;;;;;;8.93;30.22;96907.69;4937054;29;20099;-78
2022/03/14 02:14:19;;;;;;;10.65;7.57;;;;;;;8.99;30.40;96912.25;4936689;29;20563;-78
2022/03/14 02:16:47;;;;;;;12.13;7.97;;;;;;;9.03;30.40;96913.56;4935761;29;20067;-77
2022/03/14 02:19:15;;;;;;;10.70;7.72;;;;;;;9.02;30.30;96927.53;4936653;29;20056;-77
2022/03/14 02:21:44;;;;;;;10.25;8.48;;;;;;;8.99;30.74;96935.66;4936729;29;20052;-78
2022/03/14 02:24:12;;;;;;;9.00;6.78;;;;;;;8.96;30.27;96943.78;4936831;29;20132;-77
2022/03/14 02:26:40;;;;;;;10.35;7.50;;;;;;;8.95;30.21;96947.38;4935786;29;20058;-78
2022/03/14 02:29:08;;;;;;;9.95;7.65;;;;;;;9.00;30.47;96952.88;4936005;29;20059;-78
2022/03/14 02:31:36;;;;;;;10.45;7.93;;;;;;;9.09;30.74;96961.50;4936225;29;20493;-78
2022/03/14 02:34:04;;;;;;;10.07;7.88;;;;;;;9.17;30.78;96971.13;4936210;29;20055;-78
2022/03/14 02:36:32;;;;;;;11.10;8.45;;;;;;;9.23;31.12;96983.47;4935556;29;20059;-78
2022/03/14 02:39:00;;;;;;;12.73;8.88;;;;;;;9.26;31.52;96986.56;4936436;29;20047;-77
2022/03/14 02:41:28;;;;;;;12.65;8.93;;;;;;;9.32;32.28;96995.50;4936269;29;20060;-77
2022/03/14 02:43:56;;;;;;;12.05;9.38;;;;;;;9.38;33.54;96997.47;4936627;29;20519;-78
2022/03/14 02:46:23;;;;;;;14.77;9.98;;;;;;;9.43;34.54;97008.19;4935096;29;20052;-78
2022/03/14 02:48:51;;;;;;;11.65;9.10;;;;;;;9.46;36.14;97013.06;4936444;29;20067;-80
2022/03/14 02:51:18;;;;;;;14.10;9.68;;;;;;;9.49;36.92;97017.97;4936144;29;20448;-78
2022/03/14 02:53:46;;;;;;;16.83;11.27;;;;;;;9.54;37.77;97025.28;4936173;29;20052;-77
2022/03/14 02:56:15;;;;;;;14.35;10.18;;;;;;;9.59;38.60;97048.22;4935187;29;20059;-77
2022/03/14 02:58:43;;;;;;;13.20;9.60;;;;;;;9.63;38.87;97039.09;4935731;29;20060;-78
2022/03/14 03:01:10;;;;;;;14.70;10.10;;;;;;;9.68;39.04;97039.41;4936225;29;20059;-78
2022/03/14 03:03:38;;;;;;;13.77;10.65;;;;;;;9.70;39.96;97050.47;4936322;29;20051;-78
2022/03/14 03:06:13;;;;;;;15.05;10.02;;;;;;;9.71;40.63;97059.94;4935575;29;20056;-77
2022/03/14 03:08:44;;;;;;;13.93;10.07;;;;;;;9.72;41.11;97053.72;4936439;29;20052;-77
2022/03/14 03:11:11;;;;;;;13.43;9.85;;;;;;;9.72;42.10;97069.38;4936208;29;20051;-78
2022/03/14 03:13:42;;;;;;;11.85;9.52;;;;;;;9.75;42.95;97069.06;4935877;29;20051;-78
2022/03/14 03:16:10;;;;;;;15.75;10.18;;;;;;;9.77;43.31;97074.88;4935085;29;20083;-78
2022/03/14 03:18:38;;;;;;;14.88;9.85;;;;;;;9.82;43.62;97072.63;4936433;29;20603;-78
2022/03/14 03:21:05;;;;;;;10.82;8.50;;;;;;;9.87;44.15;97059.09;4936261;29;20051;-77
2022/03/14 03:23:33;;;;;;;11.95;8.93;;;;;;;9.92;44.44;97075.03;4936176;29;20048;-78
2022/03/14 03:26:00;;;;;;;13.02;9.45;;;;;;;9.96;45.07;97070.31;4935332;29;20055;-78
2022/03/14 03:28:28;;;;;;;10.43;8.43;;;;;;;9.98;45.36;97060.53;4936781;29;20058;-80
2022/03/14 03:30:57;;;;;;;14.80;10.68;;;;;;;9.97;47.66;97072.75;4936645;29;20476;-78
2022/03/14 03:33:24;;;;;;;10.00;8.10;;;;;;;9.96;48.22;97067.69;4936053;29;20055;-81
2022/03/14 03:35:52;;;;;;;9.13;7.63;;;;;;;9.99;48.69;97081.22;4935532;29;20051;-78
2022/03/14 03:38:19;;;;;;;10.27;8.05;;;;;;;10.02;49.07;97078.28;4936228;29;20055;-78
2022/03/14 03:40:47;;;;;;;11.43;8.02;;;;;;;10.05;50.26;97092.75;4937248;29;20063;-79
2022/03/14 03:43:14;;;;;;;11.95;7.78;;;;;;;10.06;50.59;97110.03;4940158;29;20047;-79
2022/03/14 03:45:42;;;;;;;10.15;7.38;;;;;;;10.07;50.59;97114.28;4940231;29;20051;-78
2022/03/14 03:48:11;;;;;;;9.50;7.80;;;;;;;10.09;51.65;97117.53;4940065;29;20048;-77
2022/03/14 03:50:38;;;;;;;9.60;6.88;;;;;;;10.12;52.36;97125.00;4940665;29;20507;-78
2022/03/14 03:53:06;;;;;;;10.75;6.68;;;;;;;10.12;52.55;97127.59;4939996;29;20051;-79
2022/03/14 03:55:34;;;;;;;6.55;5.78;;;;;;;10.15;53.16;97135.13;4949129;29;20066;-78
2022/03/14 03:58:01;;;;;;;7.18;5.68;;;;;;;10.16;52.92;97131.50;4957391;29;20064;-77
2022/03/14 04:00:29;;;;;;;7.78;5.68;;;;;;;10.17;53.37;97140.97;4948315;29;20059;-80
2022/03/14 04:02:57;;;;;;;7.75;5.93;;;;;;;10.19;53.74;97151.22;4943299;29;20072;-78
2022/03/14 04:05:29;;;;;;;6.78;5.72;;;;;;;10.19;54.48;97159.03;4942164;29;20579;-80
2022/03/14 04:07:59;;;;;;;7.35;6.18;;;;;;;10.19;54.15;97165.09;4940705;29;20055;-79
2022/03/14 04:10:28;;;;;;;9.60;5.88;;;;;;;10.19;54.56;97159.88;4941521;29;20087;-77
2022/03/14 04:12:59;;;;;;;9.80;5.57;;;;;;;10.21;54.84;97175.34;4941416;29;20053;-80
2022/03/14 04:15:27;;;;;;;9.10;5.53;;;;;;;10.22;55.20;97180.41;4941303;29;20059;-78
2022/03/14 04:17:57;;;;;;;5.90;5.00;;;;;;;10.23;55.34;97192.47;4939909;29;20062;-77
2022/03/14 04:20:26;;;;;;;8.50;5.88;;;;;;;10.23;55.02;97204.66;4943085;29;20051;-78
2022/03/14 04:22:54;;;;;;;13.75;8.88;;;;;;;10.23;54.08;97207.28;4942893;29;20066;-80
2022/03/14 04:25:21;;;;;;;10.88;8.32;;;;;;;10.21;53.49;97210.06;4942806;29;20059;-77
2022/03/14 04:27:49;;;;;;;9.93;7.88;;;;;;;10.21;53.60;97219.66;4941756;29;20067;-78
2022/03/14 04:30:16;;;;;;;10.38;7.60;;;;;;;10.19;53.61;97226.81;4942477;29;20056;-77
2022/03/14 04:32:44;;;;;;;9.90;7.43;;;;;;;10.16;53.82;97227.97;4941930;29;20055;-79
2022/03/14 04:35:12;;;;;;;8.85;7.38;;;;;;;10.13;54.26;97233.53;4942469;29;20486;-78
2022/03/14 04:37:41;;;;;;;10.35;8.32;;;;;;;10.11;53.99;97240.69;4941939;29;20059;-79
2022/03/14 04:40:11;;;;;;;14.35;8.15;;;;;;;10.05;54.15;97236.94;4942245;29;20056;-78
2022/03/14 04:42:38;;;;;;;12.90;8.63;;;;;;;10.02;53.82;97232.06;4942609;29;20056;-78
2022/03/14 04:45:07;;;;;;;10.45;8.70;;;;;;;10.00;54.11;97234.00;4942000;29;20429;-80
2022/03/14 04:47:34;;;;;;;12.35;8.00;;;;;;;10.01;54.49;97245.25;4941062;29;20047;-78
2022/03/14 04:50:02;;;;;;;10.23;8.45;;;;;;;10.02;54.93;97249.50;4941607;29;20063;-78
2022/03/14 04:52:30;;;;;;;11.85;7.70;;;;;;;10.03;54.87;97251.91;4941286;29;20464;-79
2022/03/14 04:54:59;;;;;;;10.90;8.43;;;;;;;10.05;55.56;97256.97;4940759;29;20472;-79
2022/03/14 04:57:27;;;;;;;10.15;8.45;;;;;;;10.06;55.19;97258.63;4940719;29;20064;-79
2022/03/14 04:59:55;;;;;;;11.05;7.97;;;;;;;10.07;55.29;97255.84;4941465;29;20515;-78
2022/03/14 05:02:23;;;;;;;10.05;7.53;;;;;;;10.07;55.72;97255.03;4953377;29;20052;-80
2022/03/14 05:04:52;;;;;;;15.73;8.38;;;;;;;10.03;55.88;97264.13;4958019;29;20035;-80
2022/03/14 05:07:20;;;;;;;10.30;8.18;;;;;;;9.99;56.17;97263.66;4954052;29;20062;-78
2022/03/14 05:09:47;;;;;;;9.93;7.88;;;;;;;10.00;56.23;97261.88;4945974;29;20056;-77
2022/03/14 05:12:16;;;;;;;17.52;8.82;;;;;;;10.03;56.99;97259.72;4943962;29;20055;-78
2022/03/14 05:14:44;;;;;;;9.90;8.20;;;;;;;10.04;56.39;97271.81;4942138;29;20047;-78
2022/03/14 05:17:11;;;;;;;8.85;7.80;;;;;;;10.07;56.97;97286.31;4957312;29;20062;-80
2022/03/14 05:19:39;;;;;;;10.45;7.68;;;;;;;10.08;56.89;97283.53;4959001;29;20052;-79
2022/03/14 05:22:08;;;;;;;10.18;6.35;;;;;;;10.04;57.32;97297.06;4949057;29;20158;-79
2022/03/14 05:24:35;;;;;;;11.43;7.25;;;;;;;9.98;57.59;97305.53;4939891;29;20052;-80
2022/03/14 05:27:03;;;;;;;9.48;7.50;;;;;;;9.98;57.66;97313.34;4939434;29;20055;-78
2022/03/14 05:29:32;;;;;;;9.32;7.18;;;;;;;9.99;58.42;97331.44;4940589;29;20051;-82
2022/03/14 05:31:59;;;;;;;8.55;6.85;;;;;;;9.99;58.23;97331.44;4939803;29;20562;-79
2022/03/14 05:34:27;;;;;;;10.02;7.38;;;;;;;9.99;58.40;97335.81;4942264;29;20051;-82
2022/03/14 05:36:55;;;;;;;8.38;7.20;;;;;;;10.01;58.83;97344.28;4943762;29;20435;-79
2022/03/14 05:39:23;;;;;;;8.95;7.13;;;;;;;10.00;59.09;97347.88;4944161;29;20067;-79
2022/03/14 05:41:50;;;;;;;10.48;8.00;;;;;;;10.01;59.19;97354.72;4941881;29;20084;-79
2022/03/14 05:44:18;;;;;;;10.10;8.05;;;;;;;10.01;59.23;97357.31;4941743;29;20051;-80
2022/03/14 06:11:14;;;;;;;14.87;10.60;;;;;;;9.90;61.72;97368.84;5095597;23;20314;-82
2022/03/14 06:20:42;;;;;;;12.63;9.40;;;;;;;9.86;61.92;97397.03;5203733;23;20062;-81
2022/03/14 06:40:43;;;;;;;10.40;8.33;;;;;;;9.81;62.29;97438.38;5737803;23;20078;-80
2022/03/14 06:43:13;;;;;;;13.13;8.57;;;;;;;9.81;62.61;97440.97;4976009;28;20062;-79
2022/03/14 06:45:42;;;;;;;10.50;8.32;;;;;;;9.81;62.86;97446.19;4977471;28;20058;-80
2022/03/14 06:48:12;;;;;;;9.10;7.43;;;;;;;9.78;62.78;97446.50;4978359;28;20470;-81
2022/03/14 06:50:41;;;;;;;9.90;7.18;;;;;;;9.76;63.10;97443.22;4981277;28;20146;-80
2022/03/14 06:53:12;;;;;;;8.63;7.20;;;;;;;9.76;62.92;97445.84;4977288;28;20055;-82
2022/03/14 06:55:44;;;;;;;8.48;7.05;;;;;;;9.73;63.37;97446.16;4979579;28;20046;-80
2022/03/14 07:11:41;;;;;;;7.35;4.72;;;;;;;9.78;63.09;97480.38;5864933;23;20106;-80
2022/03/14 07:14:12;;;;;;;4.75;4.00;;;;;;;9.79;63.03;97486.41;4967922;28;20043;-79
2022/03/14 08:05:01;;;;;;;3.75;1.13;;;;;;;12.08;55.16;97551.22;6116028;22;1264971;-80
2022/03/14 08:07:29;;;;;;;2.72;1.42;;;;;;;12.33;54.59;97555.41;6157350;23;20730;-79
2022/03/14 08:09:56;;;;;;;3.58;1.10;;;;;;;12.52;53.55;97551.53;6163424;23;20465;-79
2022/03/14 08:12:24;;;;;;;2.13;0.70;;;;;;;12.74;52.32;97549.16;6163898;23;20029;-78
2022/03/14 08:14:52;;;;;;;3.03;0.80;;;;;;;12.98;51.59;97564.72;6163366;23;20029;-80
2022/03/14 08:17:20;;;;;;;1.50;0.68;;;;;;;13.22;50.51;97575.22;6162948;23;20026;-79
2022/03/14 08:19:48;;;;;;;1.58;0.60;;;;;;;13.45;49.88;97581.31;6165121;23;20025;-80
2022/03/14 08:22:17;;;;;;;1.90;0.88;;;;;;;13.63;48.91;97585.44;6163582;23;20024;-79
2022/03/14 08:24:45;;;;;;;2.58;0.82;;;;;;;13.79;48.64;97585.28;6163768;23;20028;-79
2022/03/14 08:27:13;;;;;;;2.15;0.90;;;;;;;14.04;48.03;97593.75;6166699;23;20025;-85
2022/03/14 08:29:41;;;;;;;3.60;1.50;;;;;;;14.27;47.20;97592.84;6164957;23;20032;-81
2022/03/14 08:32:12;;;;;;;1.92;1.00;;;;;;;14.36;46.35;97603.06;6169322;23;20025;-80
2022/03/14 08:34:42;;;;;;;1.77;0.75;;;;;;;14.48;46.05;97605.25;6166223;23;20022;-81
2022/03/14 08:37:11;;;;;;;2.38;1.15;;;;;;;14.62;45.12;97607.06;6163596;23;20030;-80
2022/03/14 08:39:41;;;;;;;1.63;1.00;;;;;;;14.74;45.02;97610.06;6163901;23;20034;-80
2022/03/14 08:42:11;;;;;;;1.73;0.85;;;;;;;14.96;44.67;97619.63;6135203;23;20395;-80
2022/03/14 08:44:40;;;;;;;1.55;0.60;;;;;;;15.08;44.52;97617.31;6135839;23;20032;-80
2022/03/14 08:47:09;;;;;;;1.65;0.50;;;;;;;15.05;44.45;97617.72;6137208;23;20053;-80
2022/03/14 08:49:44;;;;;;;1.08;0.63;;;;;;;14.95;44.62;97625.88;6137442;23;20014;-80
2022/03/14 08:52:12;;;;;;;0.43;0.35;;;;;;;14.87;44.52;97626.00;6134247;23;20018;-80
2022/03/14 08:54:51;;;;;;;0.30;0.30;;;;;;;14.90;44.80;97630.06;6135695;23;20421;-80
2022/03/14 08:57:49;;;;;;;0.60;0.57;;;;;;;14.96;44.91;97642.47;6147914;23;20062;-81
2022/03/14 09:00:24;;;;;;;0.60;0.60;;;;;;;15.10;44.96;97646.84;6144349;23;20026;-80
2022/03/14 09:02:57;;;;;;;0.50;0.30;;;;;;;15.17;44.52;97642.50;6134677;23;20038;-78
2022/03/14 09:05:25;;;;;;;0.90;0.50;;;;;;;15.10;44.78;97651.31;6120429;23;20050;-78
2022/03/14 09:07:57;;;;;;;1.58;0.50;;;;;;;15.00;44.54;97654.25;6100112;23;20022;-79
2022/03/14 09:10:31;;;;;;;0.63;0.40;;;;;;;14.95;44.40;97646.88;6098114;23;20018;-79
2022/03/14 09:13:01;;;;;;;0.40;0.30;;;;;;;15.01;44.26;97655.84;6097902;23;20078;-78
2022/03/14 09:15:30;;;;;;;1.02;0.90;;;;;;;15.27;44.09;97651.91;6099263;23;20034;-78
2022/03/14 09:18:06;;;;;;;0.70;0.60;;;;;;;15.63;43.19;97642.19;6100545;23;20082;-79
2022/03/14 09:20:41;;;;;;;1.35;0.50;;;;;;;16.03;41.56;97642.53;6074226;23;20023;-79
2022/03/14 09:32:36;;;;;;;1.85;1.20;;;;;;;17.76;37.69;97646.97;6110040;23;20037;-80
2022/03/14 09:35:52;;;;;;;1.25;0.60;;;;;;;18.33;36.51;97656.13;6113019;23;20050;-79
2022/03/14 09:38:20;;;;;;;2.58;0.60;;;;;;;18.79;36.26;97654.44;6115186;23;20038;-79
2022/03/14 09:40:50;;;;;;;3.03;0.68;;;;;;;18.85;34.92;97662.34;6106030;23;20025;-80
2022/03/14 09:43:20;;;;;;;1.92;0.57;;;;;;;18.70;34.86;97667.03;6102016;23;20018;-79
2022/03/14 10:19:09;;;;;;;3.55;0.70;;;;;;;14.92;39.97;97720.00;6161037;23;20010;-81
2022/03/14 10:21:50;;;;;;;3.10;1.05;;;;;;;14.61;40.65;97727.06;6181286;23;20017;-83
2022/03/14 10:24:27;;;;;;;1.75;0.75;;;;;;;14.37;41.46;97714.94;6182971;23;20005;-82
2022/03/14 11:04:26;;;;;;;2.40;0.60;;;;;;;32.00;16.65;97730.03;6143072;23;20012;-82
2022/03/14 11:06:59;;;;;;;1.67;0.43;;;;;;;32.59;15.97;97732.34;6182880;23;20010;-86
2022/03/14 11:09:41;;;;;;;1.48;0.52;;;;;;;33.04;15.55;97729.91;6182068;23;20033;-83
2022/03/14 11:12:13;;;;;;;1.15;0.50;;;;;;;33.34;14.83;97725.78;6177371;23;20021;-86
2022/03/14 11:14:41;;;;;;;;;;;;;;;34.05;14.99;97720.69;6164698;23;20112;-85
2022/03/14 11:17:20;;;;;;;1.60;0.60;;;;;;;34.11;13.24;97707.88;6163047;23;20000;-84
2022/03/14 11:19:51;;;;;;;3.58;0.50;;;;;;;33.98;13.34;97731.16;6162243;23;20033;-85
2022/03/14 11:22:20;;;;;;;0.43;0.30;;;;;;;33.93;13.42;97722.34;6161983;23;20113;-86
2022/03/14 11:24:56;;;;;;;2.00;0.50;;;;;;;33.99;13.20;97718.44;6163336;23;20049;-86
2022/03/14 11:27:26;;;;;;;0.50;0.40;;;;;;;34.20;13.05;97716.84;6161447;23;20073;-86
2022/03/14 11:30:12;;;;;;;1.15;0.50;;;;;;;34.21;12.95;97715.72;6164016;23;20045;-88
2022/03/14 11:32:49;;;;;;;0.95;0.47;;;;;;;33.28;13.38;97709.97;6163404;23;20028;-87
2022/03/14 11:35:20;;;;;;;1.50;0.35;;;;;;;31.76;14.60;97702.31;6162764;23;20025;-85
2022/03/14 11:37:52;;;;;;;0.90;0.40;;;;;;;30.31;15.82;97705.06;6161406;23;20546;-85
2022/03/14 11:40:20;;;;;;;1.90;0.50;;;;;;;29.08;17.05;97696.88;6160810;23;20018;-82
2022/03/14 11:42:49;;;;;;;0.65;0.30;;;;;;;28.00;17.82;97694.34;6167593;23;20014;-85
2022/03/14 11:45:24;;;;;;;1.27;0.52;;;;;;;26.80;18.56;97687.25;6175500;23;20021;-85
2022/03/14 11:50:47;;;;;;;1.27;0.50;;;;;;;24.80;20.75;97683.47;6132264;23;20057;-79
2022/03/14 11:53:23;;;;;;;1.38;0.70;;;;;;;24.09;20.80;97688.50;6152091;23;20062;-82
2022/03/14 11:55:56;;;;;;;1.40;0.50;;;;;;;23.35;22.18;97696.50;6152998;23;20014;-83
2022/03/14 11:58:35;;;;;;;1.55;0.40;;;;;;;22.67;23.12;97682.84;6123827;23;20017;-82
2022/03/14 12:01:28;;;;;;;1.52;0.60;;;;;;;22.10;23.77;97691.34;6123980;23;20022;-82
2022/03/14 12:07:17;;;;;;;1.70;0.30;;;;;;;21.51;25.05;97675.25;6175816;23;20059;-82
2022/03/14 12:09:50;;;;;;;2.15;1.15;;;;;;;21.23;25.50;97667.88;6143587;23;20022;-80
2022/03/14 12:12:29;;;;;;;1.88;1.00;;;;;;;20.95;25.62;97665.75;6164621;23;20497;-79
2022/03/14 12:14:59;;;;;;;1.20;0.63;;;;;;;20.73;25.71;97663.53;6156631;23;20389;-80
2022/03/14 12:17:33;;;;;;;1.80;0.70;;;;;;;20.58;25.96;97669.19;6155781;23;20362;-80
2022/03/14 12:20:04;;;;;;;1.75;0.40;;;;;;;20.37;25.45;97658.97;6155547;23;20018;-79
2022/03/14 12:22:47;;;;;;;1.33;0.80;;;;;;;20.12;26.13;97651.06;6157215;23;20024;-80
2022/03/14 12:25:43;;;;;;;2.35;0.52;;;;;;;19.83;26.75;97644.56;6157124;23;20021;-79
2022/03/14 12:28:29;;;;;;;1.30;0.60;;;;;;;19.61;26.50;97647.50;6156185;23;20028;-80
2022/03/14 12:30:59;;;;;;;3.78;1.10;;;;;;;19.40;26.70;97653.16;6155896;23;20025;-80
2022/03/14 12:33:34;;;;;;;2.40;0.80;;;;;;;19.27;26.97;97664.63;6160660;23;20041;-80
2022/03/14 12:36:33;;;;;;;2.45;0.85;;;;;;;19.13;27.63;97664.69;6155856;23;20021;-79
2022/03/14 12:39:26;;;;;;;2.95;0.65;;;;;;;18.95;27.32;97664.53;6166055;23;20021;-80
2022/03/14 12:42:15;;;;;;;1.10;0.30;;;;;;;18.87;27.71;97652.38;6159011;23;20033;-79
2022/03/14 12:44:42;;;;;;;0.57;0.40;;;;;;;18.81;27.66;97650.56;6180920;23;20101;-79
2022/03/14 12:47:22;;;;;;;3.30;0.50;;;;;;;18.78;27.52;97655.44;6182987;23;20025;-82
2022/03/14 12:49:51;;;;;;;4.97;0.98;;;;;;;18.76;28.00;97650.34;6138377;23;20105;-80
2022/03/14 12:52:20;;;;;;;2.25;0.50;;;;;;;18.77;27.58;97651.16;6177037;23;20072;-79
2022/03/14 12:54:48;;;;;;;1.95;0.60;;;;;;;18.79;27.57;97657.88;6183530;23;20065;-80
2022/03/14 12:57:22;;;;;;;0.80;0.40;;;;;;;18.76;27.96;97646.88;6178955;23;20034;-79
2022/03/14 12:59:58;;;;;;;1.08;0.50;;;;;;;18.71;27.93;97655.44;6165365;23;20016;-79
2022/03/14 13:02:28;;;;;;;0.93;0.43;;;;;;;18.70;27.85;97653.81;6184157;23;20090;-80
2022/03/14 13:04:58;;;;;;;1.85;0.60;;;;;;;18.69;27.91;97645.09;6183249;23;20010;-80
2022/03/14 13:07:33;;;;;;;1.35;0.60;;;;;;;18.72;27.74;97644.66;6179325;23;20022;-80
2022/03/14 13:10:01;;;;;;;1.80;0.68;;;;;;;18.76;27.47;97653.00;6175187;23;20045;-80
2022/03/14 13:12:30;;;;;;;0.80;0.32;;;;;;;18.74;28.38;97644.47;6159955;23;20096;-80
2022/03/14 13:15:06;;;;;;;1.58;0.50;;;;;;;18.66;28.00;97664.00;6161047;23;20018;-80
2022/03/14 13:17:45;;;;;;;3.72;0.75;;;;;;;18.56;27.92;97676.81;6159995;23;20458;-79
2022/03/14 13:20:24;;;;;;;2.05;0.50;;;;;;;18.49;28.53;97663.59;6157750;23;20024;-79
2022/03/14 13:22:53;;;;;;;1.70;0.40;;;;;;;18.47;28.46;97668.28;6156967;23;20092;-78
2022/03/14 13:25:30;;;;;;;2.45;0.95;;;;;;;18.50;28.50;97659.16;6156585;23;20021;-79
2022/03/14 13:27:59;;;;;;;1.83;0.77;;;;;;;18.47;28.73;97652.44;6170858;23;20033;-80
2022/03/14 13:30:39;;;;;;;3.17;0.70;;;;;;;18.39;28.98;97657.97;6166481;23;20052;-82
2022/03/14 13:33:16;;;;;;;3.42;0.43;;;;;;;18.35;28.37;97675.22;6169958;23;20025;-79
2022/03/14 13:35:44;;;;;;;1.05;0.50;;;;;;;18.32;28.74;97680.91;6158759;23;20021;-80
2022/03/14 13:38:12;;;;;;;1.13;0.52;;;;;;;18.33;28.39;97666.69;6156102;23;20060;-79
2022/03/14 13:40:44;;;;;;;3.00;0.40;;;;;;;18.34;28.38;97668.31;6156780;23;20026;-79
2022/03/14 13:43:13;;;;;;;2.72;0.50;;;;;;;18.29;28.15;97673.41;6155723;23;20018;-78
2022/03/14 13:45:41;;;;;;;1.27;0.38;;;;;;;18.23;28.71;97663.66;6156321;23;20037;-79
2022/03/14 13:48:08;;;;;;;1.63;0.73;;;;;;;18.20;28.75;97658.78;6155694;23;20017;-79
2022/03/14 13:50:46;;;;;;;1.40;0.45;;;;;;;18.16;28.89;97652.28;6157313;23;20021;-80
2022/03/14 13:53:21;;;;;;;1.77;0.60;;;;;;;18.11;29.27;97656.34;6156978;23;20025;-79
2022/03/14 13:55:56;;;;;;;2.08;0.75;;;;;;;18.03;29.10;97651.25;6168908;23;20021;-80
2022/03/14 14:01:09;;;;;;;4.18;0.80;;;;;;;17.84;29.76;97652.06;6183837;23;20004;-81
2022/03/14 14:03:48;;;;;;;1.90;0.50;;;;;;;17.84;29.69;97654.69;6180210;23;20033;-81
2022/03/14 14:06:20;;;;;;;1.30;0.55;;;;;;;17.82;29.51;97651.44;6176392;23;20025;-81
2022/03/14 14:16:43;;;;;;;4.25;0.93;;;;;;;17.68;29.98;97658.53;5155259;27;1192323;-81
2022/03/14 14:19:16;;;;;;;2.35;0.73;;;;;;;17.59;30.00;97657.91;5179902;27;20055;-84
2022/03/14 14:21:58;;;;;;;2.25;0.80;;;;;;;17.58;29.86;97666.84;5159896;27;20085;-83
2022/03/14 14:24:29;;;;;;;3.08;0.70;;;;;;;17.58;29.58;97674.75;5158914;27;20121;-80
2022/03/14 14:26:56;;;;;;;2.58;0.65;;;;;;;17.51;29.82;97676.53;5174291;27;20049;-79
2022/03/14 14:29:43;;;;;;;5.25;1.10;;;;;;;17.42;29.92;97683.00;5174932;27;20043;-77
2022/03/14 14:32:16;;;;;;;2.75;0.77;;;;;;;17.33;30.06;97678.94;5176248;27;20451;-77
2022/03/14 14:34:43;;;;;;;2.58;0.57;;;;;;;17.26;30.01;97677.09;5168787;27;20696;-79
2022/03/14 14:37:11;;;;;;;1.35;0.85;;;;;;;17.19;30.12;97678.91;5173777;27;20062;-78
2022/03/14 14:39:40;;;;;;;1.55;0.60;;;;;;;17.14;30.04;97675.22;5175504;27;20038;-78
2022/03/14 14:42:09;;;;;;;0.80;0.70;;;;;;;17.12;30.23;97669.31;5176313;27;20451;-79
2022/03/14 14:44:36;;;;;;;3.08;1.08;;;;;;;17.08;30.42;97669.72;5176638;27;20166;-80
2022/03/14 14:47:06;;;;;;;2.38;0.60;;;;;;;17.04;30.64;97665.03;5173900;27;20057;-78
2022/03/14 14:49:35;;;;;;;1.23;0.70;;;;;;;16.98;30.78;97673.72;5175943;27;20058;-77
2022/03/14 14:52:03;;;;;;;3.35;1.27;;;;;;;16.92;30.81;97672.69;5176068;27;20066;-78
2022/03/14 14:54:31;;;;;;;2.20;1.00;;;;;;;16.86;30.81;97669.03;5176479;27;20053;-79
2022/03/14 14:57:18;;;;;;;2.78;0.80;;;;;;;16.82;30.94;97672.25;5175661;27;20473;-82
2022/03/14 14:59:46;;;;;;;1.88;0.60;;;;;;;16.80;31.30;97677.69;5176406;27;20053;-80
2022/03/14 15:02:14;;;;;;;2.72;0.98;;;;;;;16.80;31.33;97676.91;5177597;27;20050;-80
2022/03/14 15:04:43;;;;;;;1.63;0.82;;;;;;;16.78;31.45;97687.59;5177129;27;20137;-79
2022/03/14 15:07:11;;;;;;;2.08;0.70;;;;;;;16.76;31.46;97676.44;5174870;27;20435;-78
2022/03/14 15:09:40;;;;;;;2.13;0.50;;;;;;;16.76;31.41;97684.34;5176347;27;20042;-78
2022/03/14 15:12:08;;;;;;;2.72;0.80;;;;;;;16.76;31.50;97681.69;5176341;27;20046;-77
2022/03/14 15:14:37;;;;;;;3.22;0.68;;;;;;;16.74;31.57;97685.53;5175650;27;20046;-78
2022/03/14 15:17:04;;;;;;;2.63;1.20;;;;;;;16.70;31.67;97690.38;5174376;27;20050;-77